Airfield :
LOGIN :

Register | Disclaimer

   EN    FR    IT 

 










Legend :    VFR   Marginal VFR   IFR   Intensive IFR   Very Intensive IFR
Visi :
Ceiling :
>= 8 km
>= 3000ft
5 to 8 km
1000 to 3000 ft
1500m to 5 km
500 to 1000 ft
800 to 1500m
200 to 500 ft
< 800m
< 200 ft
Symbols :   Thunderstorms  Fog  Heavy snow  Heavy precipitations  Wind > 20 kt
SIGMETs :     Misc.  Thunderstorms  Icing  Turbulence  Mountain Waves  Volcanic Ashes






- Airport Elevation : 144 ft
- IATA code : PGF


LFMP - Perpignan

CURRENT METAR :
  • 200330Z AUTO 31009KT 280V340 9999 BKN096 05/M05 Q1032 TEMPO 31015G25KT

EXPIRED METARs :
  • 200300Z AUTO 31013KT 9999 BKN098 BKN150 05/M04 Q1032 TEMPO 31015G25KT
  • 200230Z AUTO 30014KT 9999 SCT080 SCT098 OVC150 05/M04 Q1032
  • 200200Z AUTO 30012KT CAVOK 06/M05 Q1032
  • 200130Z AUTO 30013KT CAVOK 06/M05 Q1032

TAF TAF LFMP
Valid from the 20 at 03:00 until the 21 at 03:00 UTC


200200Z 2003/2103 31010KT 9999 FEW035 BKN170
TEMPO 2003/2009 31015G25KT
TEMPO 2012/2016 RA
BECMG 2016/2018 RA FEW035TCU
TEMPO 2021/2103 2000 TSRA BKN005 SCT030CB BKN035 BKN050
ATIS : +33 4 68 63 75 12



MET'MAP, your aeronautical weather chart ! - Copyright ORBIFLY December 2007 - Disclaimer

ORBIFLY MET'MAP TEAM :

Programming & Development : Alexandra Zaïnal
Concept & original design : Baudouin d'Aumeries
Assistance for programming : Marc-Olivier Méhu
Technical & hardware support : Manuel Goepfert

Contact : metmap@orbifly.com




SOURCES & CREDITS :

   NOAA